Time;durP1;ratioP1;P1;durP2;ratioP2;P2;SDS_P1;SDS_P2;PMS_P1;PMS_P2;Temp;Humidity;BMP_temperature;BMP_pressure;BME280_temperature;BME280_humidity;BME280_pressure;Samples;Min_cycle;Max_cycle;Signal;HPM_P1;HPM_P2
2021/01/02 00:00:48;;;;;;;20.23;14.65;;;5.20;81.50;;;;;;5036204;28;20383;-86
2021/01/02 00:03:16;;;;;;;18.60;13.80;;;5.20;81.50;;;;;;5054694;28;20025;-88
2021/01/02 00:06:01;;;;;;;19.52;13.07;;;5.20;81.60;;;;;;5024929;28;20030;-87
2021/01/02 00:08:30;;;;;;;16.70;11.32;;;5.20;81.60;;;;;;5064582;22;20041;-88
2021/01/02 00:11:05;;;;;;;23.10;14.27;;;5.20;81.60;;;;;;5077019;28;20036;-88
2021/01/02 00:14:08;;;;;;;23.60;14.73;;;5.20;81.60;;;;;;5076432;28;20020;-88
2021/01/02 00:16:52;;;;;;;19.63;13.38;;;5.20;81.60;;;;;;5076785;28;20020;-88
2021/01/02 00:19:44;;;;;;;18.27;12.65;;;5.20;81.50;;;;;;5075448;28;20024;-88
2021/01/02 00:22:21;;;;;;;18.23;12.40;;;5.20;81.50;;;;;;5077283;28;20047;-88
2021/01/02 00:24:54;;;;;;;19.73;14.13;;;5.20;81.50;;;;;;5060099;28;20047;-88
2021/01/02 00:27:44;;;;;;;18.75;13.05;;;5.20;81.60;;;;;;5073307;28;20040;-87
2021/01/02 00:30:34;;;;;;;21.65;14.60;;;5.20;81.50;;;;;;5071262;28;20138;-88
2021/01/02 00:33:12;;;;;;;18.85;13.80;;;5.20;81.50;;;;;;5054601;28;20055;-88
2021/01/02 00:35:41;;;;;;;18.75;12.82;;;5.20;81.50;;;;;;5072152;28;20118;-88
2021/01/02 00:38:08;;;;;;;17.75;12.82;;;5.20;81.50;;;;;;5038534;28;20066;-88
2021/01/02 00:40:36;;;;;;;19.48;13.52;;;5.20;81.50;;;;;;5037806;28;20028;-88
2021/01/02 00:43:05;;;;;;;18.50;13.13;;;5.20;81.50;;;;;;5054734;28;20417;-89
2021/01/02 00:45:32;;;;;;;20.55;13.68;;;5.20;81.60;;;;;;5045937;28;20046;-88
2021/01/02 00:47:58;;;;;;;22.58;13.98;;;5.20;81.50;;;;;;5058813;28;20043;-88
2021/01/02 00:50:25;;;;;;;23.33;14.90;;;5.20;81.60;;;;;;5093659;28;20024;-88
2021/01/02 00:52:53;;;;;;;20.33;13.43;;;5.20;81.60;;;;;;5075267;28;20073;-89
2021/01/02 00:55:25;;;;;;;21.13;14.45;;;5.20;81.60;;;;;;5075171;28;20015;-88
2021/01/02 00:58:09;;;;;;;19.58;13.55;;;5.20;81.50;;;;;;5075371;28;20169;-88
2021/01/02 01:00:37;;;;;;;17.70;12.70;;;5.20;81.60;;;;;;5075116;28;20027;-88
2021/01/02 01:03:06;;;;;;;20.13;13.77;;;5.20;81.50;;;;;;5075404;28;20024;-88
2021/01/02 01:05:40;;;;;;;21.25;14.20;;;5.20;81.50;;;;;;5074779;28;20020;-88
2021/01/02 01:08:07;;;;;;;21.52;14.27;;;5.20;82.10;;;;;;5075211;28;20342;-88
2021/01/02 01:10:36;;;;;;;19.30;13.45;;;5.20;81.60;;;;;;5073762;28;20389;-88
2021/01/02 01:13:06;;;;;;;;;;;5.20;81.60;;;;;;5058710;28;20016;-88
2021/01/02 01:15:32;;;;;;;24.85;15.23;;;5.20;81.50;;;;;;5074150;28;19915;-88
2021/01/02 01:18:13;;;;;;;22.42;15.57;;;5.20;81.60;;;;;;5075098;28;20055;-88
2021/01/02 01:20:45;;;;;;;20.95;14.10;;;5.20;82.30;;;;;;5074807;28;20413;-88
2021/01/02 01:23:36;;;;;;;22.40;15.23;;;5.10;81.60;;;;;;5092937;28;20027;-88
2021/01/02 01:26:12;;;;;;;21.15;13.82;;;5.10;81.60;;;;;;5074654;28;20070;-89
2021/01/02 01:28:39;;;;;;;21.70;14.32;;;5.10;81.60;;;;;;5074460;28;20020;-88
2021/01/02 01:31:09;;;;;;;21.30;14.35;;;5.10;81.60;;;;;;5074241;28;20020;-88
2021/01/02 01:33:39;;;;;;;20.23;13.73;;;5.10;81.60;;;;;;5074204;28;20323;-88
2021/01/02 01:36:06;;;;;;;22.15;14.85;;;5.20;81.60;;;;;;5074120;28;20028;-88
2021/01/02 01:38:31;;;;;;;22.48;15.07;;;5.10;81.50;;;;;;5057372;28;20089;-89
2021/01/02 01:41:16;;;;;;;23.27;15.30;;;5.10;81.60;;;;;;5074665;28;20024;-89
2021/01/02 01:44:06;;;;;;;22.55;15.57;;;5.20;81.60;;;;;;5057747;28;20028;-89
2021/01/02 01:46:33;;;;;;;22.95;15.48;;;5.10;81.60;;;;;;5074190;28;20024;-89
2021/01/02 01:49:10;;;;;;;25.23;17.38;;;5.10;81.60;;;;;;5057901;28;20040;-88
2021/01/02 01:51:50;;;;;;;26.70;16.73;;;5.10;81.60;;;;;;5074460;28;20077;-89
2021/01/02 01:54:53;;;;;;;21.02;14.68;;;5.10;81.70;;;;;;5074987;28;20016;-89
2021/01/02 01:57:30;;;;;;;23.33;15.32;;;5.10;81.70;;;;;;5074508;28;20173;-88
2021/01/02 01:59:56;;;;;;;24.67;16.10;;;5.10;81.60;;;;;;5074536;28;20020;-88
2021/01/02 02:02:39;;;;;;;28.77;18.02;;;5.10;82.30;;;;;;5074707;28;20421;-88
2021/01/02 02:05:06;;;;;;;25.20;17.25;;;5.10;81.80;;;;;;5093025;28;20065;-88
2021/01/02 02:08:03;;;;;;;25.23;16.52;;;5.10;81.80;;;;;;5074958;28;20392;-88
2021/01/02 02:11:01;;;;;;;21.35;14.75;;;5.10;81.80;;;;;;5074747;28;20048;-88
2021/01/02 02:13:36;;;;;;;20.47;14.33;;;5.10;81.80;;;;;;5074736;28;20069;-88
2021/01/02 02:16:09;;;;;;;21.83;14.82;;;5.10;81.80;;;;;;5075174;28;20263;-89
2021/01/02 02:18:42;;;;;;;22.50;15.40;;;5.10;81.80;;;;;;5092677;28;20014;-88
2021/01/02 02:21:10;;;;;;;20.05;14.63;;;5.10;81.70;;;;;;5074776;28;20020;-89
2021/01/02 02:23:46;;;;;;;22.27;14.30;;;5.10;81.80;;;;;;5076574;28;20048;-88
2021/01/02 02:26:23;;;;;;;22.17;15.32;;;5.10;81.80;;;;;;5078770;28;20492;-88
2021/01/02 02:29:09;;;;;;;21.25;14.43;;;5.10;81.80;;;;;;5078492;28;20028;-88
2021/01/02 02:31:45;;;;;;;19.17;13.93;;;5.10;81.70;;;;;;5078069;28;20020;-88
2021/01/02 02:34:11;;;;;;;20.42;13.95;;;5.10;81.70;;;;;;5096636;28;20107;-89
2021/01/02 02:36:37;;;;;;;22.05;13.77;;;5.10;81.70;;;;;;5078452;28;20382;-88
2021/01/02 02:39:11;;;;;;;21.42;14.70;;;5.10;81.70;;;;;;5078480;28;20070;-89
2021/01/02 02:41:51;;;;;;;22.00;14.98;;;5.10;81.70;;;;;;5077873;28;20501;-88
2021/01/02 02:44:24;;;;;;;21.42;15.10;;;5.10;81.60;;;;;;5078227;28;20115;-88
2021/01/02 02:46:54;;;;;;;23.02;14.38;;;5.10;81.60;;;;;;5062240;28;20028;-88
2021/01/02 02:49:23;;;;;;;24.88;16.67;;;5.10;81.60;;;;;;5078206;28;20058;-89
2021/01/02 02:51:58;;;;;;;25.60;17.38;;;5.10;81.60;;;;;;5061870;28;20024;-88
2021/01/02 02:54:24;;;;;;;25.77;17.42;;;5.00;81.60;;;;;;5077879;28;20032;-88
2021/01/02 02:56:50;;;;;;;28.27;17.30;;;5.00;81.60;;;;;;5061268;28;20032;-88
2021/01/02 02:59:16;;;;;;;23.50;16.58;;;5.10;81.60;;;;;;5061228;28;20032;-89
2021/01/02 03:01:47;;;;;;;23.98;16.27;;;5.00;81.50;;;;;;5061158;28;20062;-89
2021/01/02 03:04:13;;;;;;;28.08;17.92;;;5.00;81.60;;;;;;5077735;28;20377;-88
2021/01/02 03:06:39;;;;;;;24.20;16.15;;;5.00;81.60;;;;;;5061017;28;20097;-88
2021/01/02 03:09:05;;;;;;;25.92;18.10;;;5.00;81.60;;;;;;5060920;28;20044;-88
2021/01/02 03:11:33;;;;;;;24.48;16.58;;;5.00;81.60;;;;;;5060891;28;20032;-88
2021/01/02 03:13:58;;;;;;;24.45;16.65;;;5.00;81.60;;;;;;5077767;28;20020;-88
2021/01/02 03:16:24;;;;;;;25.25;16.50;;;5.00;81.60;;;;;;5077320;28;20036;-89
2021/01/02 03:18:50;;;;;;;25.90;17.35;;;5.00;81.50;;;;;;5061358;28;20032;-89
2021/01/02 03:21:16;;;;;;;23.80;16.10;;;5.00;81.50;;;;;;5077782;28;20078;-89
2021/01/02 03:23:44;;;;;;;24.48;16.23;;;5.00;81.50;;;;;;5061141;28;20123;-89
2021/01/02 03:26:10;;;;;;;27.35;16.77;;;5.00;81.50;;;;;;5077798;28;20032;-89
2021/01/02 03:28:36;;;;;;;22.90;15.30;;;5.00;81.50;;;;;;5061155;28;20092;-88
2021/01/02 03:31:02;;;;;;;24.05;16.83;;;5.00;81.50;;;;;;5061290;28;20032;-88
2021/01/02 03:33:28;;;;;;;25.67;16.35;;;5.00;81.50;;;;;;5061008;28;20032;-88
2021/01/02 03:36:02;;;;;;;25.38;17.13;;;5.00;81.50;;;;;;5061082;28;20028;-88
2021/01/02 03:38:34;;;;;;;22.15;14.57;;;5.00;81.50;;;;;;5077588;28;20036;-89
2021/01/02 03:41:00;;;;;;;23.17;14.95;;;5.00;81.50;;;;;;5077341;28;20137;-89
2021/01/02 03:43:27;;;;;;;21.23;14.65;;;5.00;81.50;;;;;;5077087;28;20085;-89
2021/01/02 03:45:53;;;;;;;23.30;15.95;;;5.00;81.50;;;;;;5060528;28;20039;-89
2021/01/02 03:48:19;;;;;;;22.35;14.73;;;5.00;81.50;;;;;;5095264;28;20025;-89
2021/01/02 03:50:45;;;;;;;22.52;14.68;;;5.00;81.50;;;;;;5060620;28;20490;-89
2021/01/02 03:53:10;;;;;;;22.60;15.13;;;5.00;81.50;;;;;;5060666;28;20028;-89
2021/01/02 03:55:36;;;;;;;22.65;14.35;;;5.00;81.40;;;;;;5076949;28;20471;-88
2021/01/02 03:58:02;;;;;;;21.73;15.00;;;5.00;81.50;;;;;;5077318;28;20377;-89
2021/01/02 04:00:28;;;;;;;21.90;14.25;;;5.00;81.40;;;;;;5060359;28;20424;-88
2021/01/02 04:02:54;;;;;;;19.70;13.35;;;5.00;81.40;;;;;;5077261;28;20028;-88
2021/01/02 04:05:19;;;;;;;23.23;14.60;;;5.00;81.40;;;;;;5059975;28;20431;-88
2021/01/02 04:07:45;;;;;;;21.63;14.48;;;5.00;81.40;;;;;;5060333;28;20131;-88
2021/01/02 04:10:11;;;;;;;20.60;14.27;;;4.90;81.30;;;;;;5060121;28;20055;-88
2021/01/02 04:12:36;;;;;;;20.02;13.35;;;5.00;81.40;;;;;;5076562;28;20123;-89
2021/01/02 04:15:03;;;;;;;21.25;13.10;;;5.00;81.40;;;;;;5076770;28;20116;-89
2021/01/02 04:17:29;;;;;;;23.90;15.00;;;5.00;81.40;;;;;;5076370;28;20031;-88
2021/01/02 04:19:55;;;;;;;21.55;13.45;;;4.90;81.30;;;;;;5076962;28;20032;-89
2021/01/02 04:22:21;;;;;;;23.85;15.38;;;5.00;81.30;;;;;;5059531;28;20132;-88
2021/01/02 04:24:46;;;;;;;24.80;15.27;;;4.90;81.30;;;;;;5076773;28;20066;-88
2021/01/02 04:27:12;;;;;;;25.67;15.52;;;4.90;81.30;;;;;;5059994;28;20025;-88
2021/01/02 04:29:37;;;;;;;22.85;14.10;;;4.90;81.30;;;;;;5059384;28;20028;-89
2021/01/02 04:32:05;;;;;;;25.00;15.93;;;4.90;81.30;;;;;;5059997;28;20062;-89
2021/01/02 04:34:31;;;;;;;22.52;14.63;;;4.90;81.30;;;;;;5059475;28;20043;-89
2021/01/02 04:36:57;;;;;;;23.83;14.90;;;4.90;81.30;;;;;;5076433;28;20028;-88
2021/01/02 04:39:23;;;;;;;23.35;14.43;;;4.90;81.30;;;;;;5076188;28;20028;-88
2021/01/02 04:41:49;;;;;;;21.80;13.88;;;4.90;81.30;;;;;;5059697;28;20024;-89
2021/01/02 04:44:16;;;;;;;25.10;14.40;;;4.90;81.30;;;;;;5059571;28;20024;-89
2021/01/02 04:46:45;;;;;;;23.77;14.52;;;4.90;81.30;;;;;;5075403;28;20062;-88
2021/01/02 04:49:11;;;;;;;24.33;14.63;;;4.90;81.30;;;;;;5076110;28;20034;-88
2021/01/02 04:51:37;;;;;;;25.15;15.82;;;4.90;81.30;;;;;;5059357;28;20127;-89
2021/01/02 04:54:04;;;;;;;22.85;15.55;;;4.90;81.30;;;;;;5059071;28;20034;-88
2021/01/02 04:56:35;;;;;;;27.10;17.02;;;4.90;81.30;;;;;;5075868;28;20601;-88
2021/01/02 04:59:11;;;;;;;22.90;15.23;;;4.90;81.30;;;;;;5060017;28;20059;-89
2021/01/02 05:01:41;;;;;;;22.50;15.35;;;4.90;81.30;;;;;;5075632;28;20024;-88
2021/01/02 05:04:10;;;;;;;24.67;15.18;;;4.90;81.30;;;;;;5093730;28;20020;-89
2021/01/02 05:06:36;;;;;;;24.73;16.30;;;4.90;81.20;;;;;;5059017;28;20050;-88
2021/01/02 05:09:06;;;;;;;23.33;14.90;;;4.90;81.30;;;;;;5058845;28;20044;-89
2021/01/02 05:11:36;;;;;;;26.05;16.42;;;4.90;81.30;;;;;;5075659;28;20028;-88
2021/01/02 05:14:03;;;;;;;23.13;15.15;;;4.90;81.30;;;;;;5075435;28;20024;-89
2021/01/02 05:16:39;;;;;;;25.15;15.68;;;4.80;81.30;;;;;;5075233;28;20083;-89
2021/01/02 05:19:05;;;;;;;25.33;15.88;;;4.80;81.20;;;;;;5075865;28;20023;-89
2021/01/02 05:21:32;;;;;;;26.63;16.80;;;4.80;81.30;;;;;;5058996;28;20028;-89
2021/01/02 05:24:19;;;;;;;25.35;16.42;;;4.80;81.30;;;;;;5059011;28;20020;-88
2021/01/02 05:26:46;;;;;;;23.80;14.85;;;4.80;81.30;;;;;;5093214;28;20047;-88
2021/01/02 05:29:16;;;;;;;24.60;15.85;;;4.80;81.20;;;;;;5075654;28;20028;-89
2021/01/02 05:31:44;;;;;;;22.42;15.18;;;4.80;81.30;;;;;;5093015;28;20542;-89
2021/01/02 05:34:11;;;;;;;23.77;15.23;;;4.80;81.30;;;;;;5075233;28;20160;-89
2021/01/02 05:36:38;;;;;;;23.75;15.38;;;4.80;81.30;;;;;;5058402;28;20094;-89
2021/01/02 05:39:05;;;;;;;26.05;16.33;;;4.80;81.30;;;;;;5074906;28;20481;-89
2021/01/02 05:41:54;;;;;;;26.45;16.48;;;4.80;81.30;;;;;;5075079;28;20038;-88
2021/01/02 05:44:23;;;;;;;;;;;4.80;81.30;;;;;;5075871;28;20325;-89
2021/01/02 05:46:53;;;;;;;22.17;13.55;;;4.80;81.30;;;;;;5075359;28;19904;-89
2021/01/02 05:49:34;;;;;;;20.65;13.77;;;4.80;81.30;;;;;;5075241;28;20031;-88
2021/01/02 05:52:02;;;;;;;24.30;14.95;;;4.80;81.30;;;;;;5075018;28;20202;-89
2021/01/02 05:54:30;;;;;;;24.38;14.65;;;4.80;81.30;;;;;;5092841;28;20032;-89
2021/01/02 05:57:01;;;;;;;25.35;15.75;;;4.80;81.30;;;;;;5075110;28;20095;-89
2021/01/02 05:59:27;;;;;;;26.08;14.90;;;4.80;81.30;;;;;;5078531;28;20073;-89
2021/01/02 06:01:53;;;;;;;21.63;13.85;;;4.80;81.30;;;;;;5079220;28;20031;-89
2021/01/02 06:04:19;;;;;;;23.58;14.20;;;4.80;81.30;;;;;;5079105;28;20031;-89
2021/01/02 06:06:45;;;;;;;21.27;13.73;;;4.80;81.30;;;;;;5079106;28;20032;-89
2021/01/02 06:09:12;;;;;;;23.13;14.50;;;4.80;81.30;;;;;;5070425;22;20044;-86
2021/01/02 06:11:42;;;;;;;22.85;14.10;;;4.80;81.30;;;;;;5056702;28;20470;-86
2021/01/02 06:14:09;;;;;;;21.20;13.45;;;4.80;81.30;;;;;;5056985;28;20439;-86
2021/01/02 06:16:42;;;;;;;21.83;13.82;;;4.80;81.30;;;;;;5040319;28;20086;-86
2021/01/02 06:19:08;;;;;;;22.50;13.50;;;4.80;81.30;;;;;;5057324;28;20024;-86
2021/01/02 06:21:33;;;;;;;24.85;14.73;;;4.80;81.30;;;;;;5074584;28;20068;-86
2021/01/02 06:23:59;;;;;;;23.58;14.27;;;4.80;81.30;;;;;;5056843;28;20040;-82
2021/01/02 06:26:25;;;;;;;23.90;15.55;;;4.80;81.30;;;;;;5056092;28;20391;-82
2021/01/02 06:28:53;;;;;;;22.83;14.63;;;4.80;81.30;;;;;;5039827;28;20118;-82
2021/01/02 06:31:18;;;;;;;24.73;14.75;;;4.80;81.30;;;;;;5040174;28;20028;-82
2021/01/02 06:33:50;;;;;;;23.02;15.13;;;4.80;81.20;;;;;;5057397;28;20507;-82
2021/01/02 06:36:33;;;;;;;26.80;15.27;;;4.80;81.30;;;;;;5075906;28;20024;-82
2021/01/02 06:39:15;;;;;;;25.63;14.50;;;4.80;81.30;;;;;;5094180;28;20032;-82
2021/01/02 06:41:41;;;;;;;23.95;14.32;;;4.80;81.20;;;;;;5075561;28;20054;-82
2021/01/02 06:44:07;;;;;;;23.38;15.07;;;4.80;81.20;;;;;;5059377;28;20055;-82
2021/01/02 06:46:36;;;;;;;22.17;14.15;;;4.70;81.10;;;;;;5075695;28;20047;-82
2021/01/02 06:49:31;;;;;;;31.98;15.80;;;4.70;81.10;;;;;;5075679;28;20028;-82
2021/01/02 06:51:56;;;;;;;24.42;14.20;;;4.80;81.20;;;;;;5069197;28;20036;-82
2021/01/02 06:54:23;;;;;;;28.88;16.13;;;4.70;81.10;;;;;;5039075;28;20546;-82
2021/01/02 06:57:00;;;;;;;24.73;14.93;;;4.70;81.10;;;;;;5055034;28;20025;-82
2021/01/02 06:59:26;;;;;;;26.73;16.08;;;4.70;81.10;;;;;;5073648;28;20028;-82
2021/01/02 07:01:51;;;;;;;25.08;14.35;;;4.70;81.20;;;;;;5048266;28;20061;-82
2021/01/02 07:04:37;;;;;;;24.95;14.73;;;4.70;81.70;;;;;;5024946;28;20028;-86
2021/01/02 07:07:04;;;;;;;26.15;14.93;;;4.70;81.10;;;;;;5059374;28;20039;-80
2021/01/02 07:09:31;;;;;;;26.25;15.95;;;4.70;81.20;;;;;;5092563;28;20223;-80
2021/01/02 07:12:11;;;;;;;25.25;15.10;;;4.70;81.20;;;;;;5092994;28;20051;-81
2021/01/02 07:14:38;;;;;;;29.90;17.05;;;4.70;81.20;;;;;;5093474;28;20024;-83
2021/01/02 07:17:10;;;;;;;29.48;17.42;;;4.70;81.20;;;;;;5069451;28;20029;-82
2021/01/02 07:19:38;;;;;;;28.33;15.93;;;4.70;81.20;;;;;;5054461;28;20033;-82
2021/01/02 07:22:21;;;;;;;27.38;16.13;;;4.60;81.20;;;;;;5054918;28;20024;-85
2021/01/02 07:25:01;;;;;;;26.60;15.35;;;4.70;81.20;;;;;;5072540;28;20100;-85
2021/01/02 07:27:30;;;;;;;26.08;15.35;;;4.60;81.20;;;;;;5054678;28;20036;-85
2021/01/02 07:29:56;;;;;;;26.45;15.30;;;4.70;81.20;;;;;;5071358;28;20032;-85
2021/01/02 07:32:28;;;;;;;28.70;17.25;;;4.60;81.20;;;;;;5073068;28;20028;-85
2021/01/02 07:35:07;;;;;;;26.85;15.15;;;4.70;81.20;;;;;;5072661;28;20078;-84
2021/01/02 07:37:34;;;;;;;26.60;15.80;;;4.60;81.20;;;;;;5054520;28;20028;-84
2021/01/02 07:40:07;;;;;;;25.25;15.75;;;4.60;81.20;;;;;;5038478;28;20120;-84
2021/01/02 07:42:35;;;;;;;33.80;19.40;;;4.60;81.20;;;;;;5050872;28;20029;-84
2021/01/02 07:45:05;;;;;;;28.83;16.65;;;4.60;81.20;;;;;;5052719;28;20508;-85
2021/01/02 07:47:31;;;;;;;30.85;18.30;;;4.60;81.20;;;;;;5063174;28;20028;-85
2021/01/02 07:50:11;;;;;;;33.33;18.85;;;4.60;81.90;;;;;;5071398;28;20036;-84
2021/01/02 07:52:46;;;;;;;28.75;17.40;;;4.60;81.30;;;;;;5054091;28;20043;-84
2021/01/02 07:55:12;;;;;;;28.88;16.52;;;4.60;81.30;;;;;;5057977;28;20093;-85
2021/01/02 07:57:38;;;;;;;29.65;16.55;;;4.60;81.30;;;;;;5036866;28;20444;-84
2021/01/02 08:00:07;;;;;;;29.17;17.75;;;4.60;81.20;;;;;;5070996;28;20025;-85
2021/01/02 08:02:38;;;;;;;29.85;16.73;;;4.60;81.30;;;;;;5053955;28;20024;-85
2021/01/02 08:05:24;;;;;;;31.33;19.08;;;4.60;81.30;;;;;;5038488;28;20054;-85
2021/01/02 08:07:55;;;;;;;32.20;18.15;;;4.60;81.30;;;;;;5040065;28;20059;-84
2021/01/02 08:10:21;;;;;;;32.40;18.77;;;4.60;81.30;;;;;;5072122;28;20047;-84
2021/01/02 08:12:49;;;;;;;29.80;17.83;;;4.60;81.30;;;;;;5053721;28;20128;-84
2021/01/02 08:15:18;;;;;;;31.55;17.98;;;4.60;81.30;;;;;;5052324;28;20025;-86
2021/01/02 08:17:43;;;;;;;;;;;4.60;81.40;;;;;;5045752;28;20049;-83
2021/01/02 08:20:10;;;;;;;33.45;19.65;;;4.60;81.30;;;;;;5066690;28;19912;-84
2021/01/02 08:22:38;;;;;;;31.95;19.10;;;4.60;81.40;;;;;;5070684;28;20025;-84
2021/01/02 08:25:11;;;;;;;36.00;21.23;;;4.60;81.40;;;;;;5075579;28;20031;-84
2021/01/02 08:27:37;;;;;;;35.05;20.33;;;4.60;81.40;;;;;;5085176;28;20036;-82
2021/01/02 08:30:09;;;;;;;32.75;19.75;;;4.60;81.40;;;;;;5053954;28;20481;-82
2021/01/02 08:32:40;;;;;;;31.58;19.20;;;4.60;81.40;;;;;;5069664;28;20446;-83
2021/01/02 08:35:25;;;;;;;32.55;19.08;;;4.60;81.40;;;;;;5053705;28;20114;-83
2021/01/02 08:37:51;;;;;;;33.28;19.35;;;4.60;81.50;;;;;;5054293;28;20060;-84
2021/01/02 08:40:18;;;;;;;33.63;20.23;;;4.60;81.40;;;;;;5073015;28;20059;-83
2021/01/02 08:42:47;;;;;;;32.65;19.98;;;4.60;81.50;;;;;;5055351;28;20032;-84
2021/01/02 08:45:28;;;;;;;35.43;20.60;;;4.60;81.40;;;;;;5055801;28;20130;-85
2021/01/02 08:48:08;;;;;;;38.08;20.83;;;4.60;81.50;;;;;;5066844;28;20307;-85
2021/01/02 08:50:38;;;;;;;33.65;20.45;;;4.60;81.50;;;;;;5051550;28;20435;-86
2021/01/02 08:53:03;;;;;;;38.38;20.65;;;4.60;81.50;;;;;;5049634;28;20082;-86
2021/01/02 08:55:29;;;;;;;33.63;19.55;;;4.60;81.40;;;;;;5034726;28;20033;-85
2021/01/02 08:57:55;;;;;;;31.85;19.35;;;4.60;81.40;;;;;;5036363;28;20040;-84
2021/01/02 09:00:23;;;;;;;38.35;21.77;;;4.60;81.40;;;;;;5071267;28;20176;-84
2021/01/02 09:02:51;;;;;;;35.53;20.33;;;4.60;81.40;;;;;;5036838;28;20065;-86
2021/01/02 09:05:25;;;;;;;34.25;19.42;;;4.60;81.40;;;;;;5053529;28;20025;-87
2021/01/02 09:08:00;;;;;;;38.97;21.85;;;4.60;81.40;;;;;;5039401;28;20037;-86
2021/01/02 09:10:47;;;;;;;37.25;20.88;;;4.60;81.50;;;;;;5051688;28;20072;-86
2021/01/02 09:13:20;;;;;;;36.08;20.60;;;4.60;81.40;;;;;;5053429;28;20070;-87
2021/01/02 09:16:00;;;;;;;35.88;20.00;;;4.60;81.40;;;;;;5050275;28;20040;-85
2021/01/02 09:18:29;;;;;;;35.03;19.58;;;4.60;81.40;;;;;;5066301;28;20033;-85
2021/01/02 09:21:14;;;;;;;40.67;22.77;;;4.60;81.40;;;;;;5049535;28;20025;-86
2021/01/02 09:23:42;;;;;;;39.42;20.52;;;4.60;81.40;;;;;;5050841;28;20063;-85
2021/01/02 09:26:21;;;;;;;33.42;20.08;;;4.60;81.50;;;;;;5034216;28;20466;-85
2021/01/02 09:28:47;;;;;;;;;;;4.60;81.50;;;;;;5053729;28;20027;-86
2021/01/02 09:31:13;;;;;;;34.05;18.30;;;4.60;81.40;;;;;;5054840;28;20006;-86
2021/01/02 09:33:39;;;;;;;38.58;21.10;;;4.60;81.40;;;;;;5054431;28;20373;-86
2021/01/02 09:36:05;;;;;;;46.78;22.15;;;4.70;81.50;;;;;;5054820;28;20025;-86
2021/01/02 09:38:31;;;;;;;41.88;22.00;;;4.70;81.50;;;;;;5073199;28;20044;-86
2021/01/02 09:40:56;;;;;;;37.90;20.25;;;4.70;81.50;;;;;;5066384;28;20107;-86
2021/01/02 09:43:22;;;;;;;41.42;22.52;;;4.70;81.60;;;;;;5036925;28;20467;-84
2021/01/02 09:45:48;;;;;;;36.13;20.10;;;4.70;81.60;;;;;;5054427;28;20016;-86
2021/01/02 09:48:14;;;;;;;41.47;21.38;;;4.70;81.60;;;;;;5054875;28;20355;-86
2021/01/02 09:50:41;;;;;;;42.03;22.33;;;4.70;81.60;;;;;;5072466;28;20088;-86
2021/01/02 09:53:08;;;;;;;47.35;23.08;;;4.70;81.50;;;;;;5062670;28;20021;-87
2021/01/02 09:55:34;;;;;;;42.35;22.50;;;4.80;81.70;;;;;;5072525;28;20059;-86
2021/01/02 09:57:59;;;;;;;39.63;20.58;;;4.80;81.70;;;;;;5054698;28;20068;-86
2021/01/02 10:00:27;;;;;;;39.67;21.92;;;4.80;81.70;;;;;;5054792;28;20025;-86
2021/01/02 10:02:54;;;;;;;40.95;21.90;;;4.80;82.30;;;;;;5052784;28;20108;-87
2021/01/02 10:05:21;;;;;;;43.90;23.08;;;4.80;81.70;;;;;;5038343;28;20029;-87
2021/01/02 10:07:46;;;;;;;52.97;26.45;;;4.80;81.70;;;;;;5072133;28;20107;-86
2021/01/02 10:10:15;;;;;;;49.05;26.10;;;4.80;81.80;;;;;;5054436;28;20141;-86
2021/01/02 10:12:42;;;;;;;48.33;24.60;;;4.80;81.80;;;;;;5055167;28;20094;-86
2021/01/02 10:15:08;;;;;;;50.95;24.65;;;4.90;81.90;;;;;;5054367;28;20050;-86
2021/01/02 10:17:34;;;;;;;46.83;23.67;;;4.90;81.90;;;;;;5037781;28;20055;-86
2021/01/02 10:19:59;;;;;;;45.67;22.98;;;4.90;81.80;;;;;;5054712;28;20469;-86
2021/01/02 10:22:26;;;;;;;43.45;22.02;;;4.90;81.80;;;;;;5072529;28;20036;-87
2021/01/02 10:24:53;;;;;;;43.33;22.65;;;4.90;81.80;;;;;;5059955;28;20032;-86
2021/01/02 10:27:20;;;;;;;48.55;24.15;;;5.00;81.80;;;;;;5065471;28;20276;-87
2021/01/02 10:29:48;;;;;;;53.03;24.75;;;5.00;81.80;;;;;;5055991;28;20029;-86
2021/01/02 10:32:15;;;;;;;51.10;24.38;;;5.00;81.80;;;;;;5064868;28;20025;-87
2021/01/02 10:34:42;;;;;;;51.78;23.92;;;5.00;81.80;;;;;;5051305;28;20111;-86
2021/01/02 10:37:08;;;;;;;43.75;22.02;;;5.10;81.90;;;;;;5071497;28;20083;-87
2021/01/02 10:39:41;;;;;;;43.85;23.30;;;5.10;81.80;;;;;;5039058;28;20029;-88
2021/01/02 10:42:07;;;;;;;46.05;22.77;;;5.10;81.80;;;;;;5059535;28;20024;-87
2021/01/02 10:44:33;;;;;;;50.33;23.65;;;5.10;81.80;;;;;;5060224;28;20021;-87
2021/01/02 10:46:59;;;;;;;42.00;21.10;;;5.10;81.70;;;;;;5037539;28;20033;-86
2021/01/02 10:49:25;;;;;;;42.28;21.98;;;5.10;81.80;;;;;;5015829;28;20398;-86
2021/01/02 10:51:58;;;;;;;46.88;23.50;;;5.20;81.80;;;;;;5067183;28;20036;-87
2021/01/02 10:54:24;;;;;;;42.50;21.02;;;5.20;81.80;;;;;;5037588;28;20033;-85
2021/01/02 10:56:52;;;;;;;42.63;20.15;;;5.20;82.30;;;;;;5019842;28;20516;-85
2021/01/02 10:59:22;;;;;;;43.70;20.95;;;5.20;81.70;;;;;;5049776;28;20021;-85
2021/01/02 11:01:51;;;;;;;45.88;22.17;;;5.30;81.70;;;;;;5052846;28;20102;-85
2021/01/02 11:04:19;;;;;;;41.78;21.17;;;5.30;81.70;;;;;;5056724;28;20020;-86
2021/01/02 11:06:48;;;;;;;39.17;20.38;;;5.30;81.70;;;;;;5055992;28;20032;-86
2021/01/02 11:09:15;;;;;;;43.67;21.75;;;5.30;81.70;;;;;;5040257;28;20052;-86
2021/01/02 11:11:41;;;;;;;45.00;22.63;;;5.30;81.60;;;;;;5055071;28;20468;-84
2021/01/02 11:14:08;;;;;;;41.55;21.85;;;5.30;81.60;;;;;;5056145;28;20479;-85
2021/01/02 11:16:37;;;;;;;45.95;21.08;;;5.30;81.50;;;;;;5055762;28;20036;-87
2021/01/02 11:19:28;;;;;;;40.05;19.33;;;5.40;81.70;;;;;;5056303;28;20025;-86
2021/01/02 11:22:00;;;;;;;39.03;19.35;;;5.40;81.60;;;;;;5056853;28;20029;-86
2021/01/02 11:24:30;;;;;;;42.22;19.63;;;5.40;81.50;;;;;;5051649;28;20066;-85
2021/01/02 11:26:58;;;;;;;42.13;18.63;;;5.50;81.50;;;;;;5070898;28;20112;-85
2021/01/02 11:29:27;;;;;;;36.83;19.63;;;5.40;81.50;;;;;;5073937;28;20032;-84
2021/01/02 11:31:53;;;;;;;47.88;22.63;;;5.50;81.50;;;;;;5055676;28;20048;-85
2021/01/02 11:34:20;;;;;;;42.08;21.08;;;5.50;81.50;;;;;;5039210;28;20482;-85
2021/01/02 11:36:51;;;;;;;46.42;21.42;;;5.50;81.50;;;;;;5052989;28;20055;-85
2021/01/02 11:39:16;;;;;;;47.17;22.42;;;5.50;81.50;;;;;;5071807;28;20079;-86
2021/01/02 11:41:42;;;;;;;43.20;21.08;;;5.50;81.50;;;;;;5053674;28;20032;-85
2021/01/02 11:44:12;;;;;;;43.10;20.45;;;5.50;81.50;;;;;;5021412;28;20032;-85
2021/01/02 11:46:41;;;;;;;39.70;20.10;;;5.50;81.50;;;;;;5071291;28;20151;-84
2021/01/02 11:49:08;;;;;;;;;;;5.50;81.50;;;;;;5053884;28;20107;-85
2021/01/02 11:51:37;;;;;;;37.22;18.70;;;5.50;81.50;;;;;;5052900;28;19955;-85
2021/01/02 11:54:03;;;;;;;;;;;5.60;81.50;;;;;;5051190;28;20036;-85
2021/01/02 11:56:29;;;;;;;33.40;18.15;;;5.50;81.40;;;;;;5053013;28;19966;-85
2021/01/02 11:59:00;;;;;;;46.60;23.10;;;5.60;81.50;;;;;;5033848;28;20104;-85
2021/01/02 12:01:41;;;;;;;41.15;19.88;;;5.60;81.50;;;;;;5054236;28;20024;-85
2021/01/02 12:04:08;;;;;;;48.85;22.42;;;5.60;81.60;;;;;;5067032;28;20421;-85
2021/01/02 12:06:34;;;;;;;48.70;23.77;;;5.60;81.50;;;;;;5070507;28;20028;-85
2021/01/02 12:09:27;;;;;;;40.85;20.92;;;5.60;81.60;;;;;;5476594;22;20028;31
2021/01/02 12:28:53;;;;;;;41.45;20.85;;;5.70;81.60;;;;;;4975901;28;20105;-94
2021/01/02 12:31:25;;;;;;;39.65;19.67;;;5.70;81.60;;;;;;4975848;28;20093;-95
2021/01/02 12:33:51;;;;;;;41.47;20.40;;;5.80;81.60;;;;;;4976603;28;20608;-95
2021/01/02 12:36:19;;;;;;;44.05;21.27;;;5.80;81.60;;;;;;4959674;28;20031;-95
2021/01/02 12:38:45;;;;;;;41.50;20.90;;;5.80;81.50;;;;;;4976052;28;20425;-94
2021/01/02 12:41:41;;;;;;;43.10;22.27;;;5.80;81.60;;;;;;4976340;28;20023;-95
2021/01/02 12:44:08;;;;;;;38.65;20.38;;;5.80;81.50;;;;;;4959545;28;20033;-95
2021/01/02 12:47:05;;;;;;;40.53;20.95;;;5.80;81.50;;;;;;4975419;28;20081;-94
2021/01/02 12:49:32;;;;;;;36.67;19.60;;;5.80;81.40;;;;;;4975535;28;20031;-94
2021/01/02 12:52:03;;;;;;;37.78;19.75;;;5.90;81.50;;;;;;4975522;28;20027;-95
2021/01/02 12:54:29;;;;;;;40.60;19.85;;;5.90;81.40;;;;;;4975227;28;20058;-94
2021/01/02 12:57:05;;;;;;;38.55;20.10;;;5.90;81.40;;;;;;4975261;28;20070;-95
2021/01/02 13:13:23;;;;;;;32.92;16.60;;;6.00;81.40;;;;;;4842934;29;20444;-94
2021/01/02 13:19:39;;;;;;;35.35;17.40;;;6.00;81.40;;;;;;4842550;29;20056;-94
2021/01/02 13:22:14;;;;;;;32.92;17.25;;;6.00;81.30;;;;;;4825923;29;20026;-94
2021/01/02 13:49:57;;;;;;;36.90;17.58;;;6.00;81.20;;;;;;4956846;29;20074;-96
2021/01/02 13:56:02;;;;;;;34.35;17.98;;;6.10;81.30;;;;;;4957293;29;20146;-95
2021/01/02 14:02:19;;;;;;;39.75;18.38;;;6.10;81.20;;;;;;4916189;29;20031;-93